Terminal Aerodrome Forecast
Issued by NWS North Platte, NE

Home | Current Version | Previous Version | Graphics & Text | Print | Product List | Glossary On
Versions: 1 2 3 4 5 6 7 8 9 10 11 12 13 14 15 16 17 18 19 20 21 22 23 24
000
FTUS43 KLBF 152200 AAD
TAFVTN
TAF AMD
KVTN 152259Z 1523/1618 34018G29KT 2SM -SN BLSN BKN015 OVC025
     FM160000 34014G21KT 5SM -SN SCT015 OVC025
     FM160600 32012KT 5SM BR BKN007 OVC010=

USA.gov is the U.S. government's official web portal to all federal, state and local government web resources and services.